»·PEaware :: ASA327 KDEN-KAMA

ASA327 :: KDEN-KAMA

FLIGHT INFORMATION

Flight Status: Arrived
Operator:
Alaska Airlines
More flights by this operator :: More flights under this callsign
Pilot: Cooper L. (8467)
Aircraft: BOEING 737-800
(B738)
More flights by this aircraft type
Origin: KDEN Denver Intl
United States
Destination: KAMA Amarillo Intl
United States
More flights between these airports :: More routes between these airports
Route: JMPRS2 ADANE JUNER KENTO QURTR
File this flight plan on PilotEdge
Remarks:
Altitude:
(Current/Filed)
31,000ft
Speed:
(Current/Filed)
425kts
Departed: 26-Mar-17 04:00 PM
Arrived: 26-Mar-17 04:59 PM
Distance/Time
Traveled:
312nm/0:59
Distance/Time
To Go:
Arrived

Flight Plot

Page will automatically refresh every two minutes.

Flight plan parsing failed; only flown route is shown


Map Options




Map Legend


Flown Route
Filed Route
Departure Airport
Arrival Airport
Navaid (VOR, NDB)
Fix

Horizontal Profiles

Position Reports

Time Latitude Longitude Heading Altitude Ground
Speed
26-Mar-17 15:35 39.853387 -104.669990 0 5440ft 0kts
26-Mar-17 15:36 39.853387 -104.669990 0 5440ft 0kts
26-Mar-17 15:37 39.853387 -104.669990 0 5440ft 0kts
26-Mar-17 15:38 39.853387 -104.669990 0 5440ft 0kts
26-Mar-17 15:39 39.853387 -104.669990 0 5440ft 0kts
26-Mar-17 15:40 39.853387 -104.669990 0 5440ft 0kts
26-Mar-17 15:41 39.853387 -104.669990 0 5440ft 0kts
26-Mar-17 15:42 39.853387 -104.669990 0 5440ft 0kts
26-Mar-17 15:43 39.853387 -104.669990 0 5440ft 0kts
26-Mar-17 15:44 39.853387 -104.669990 0 5440ft 0kts
26-Mar-17 15:45 39.853387 -104.669990 0 5440ft 0kts
26-Mar-17 15:46 39.853387 -104.669990 0 5440ft 0kts
26-Mar-17 15:47 39.853387 -104.669990 0 5440ft 0kts
26-Mar-17 15:48 39.853387 -104.669990 0 5440ft 0kts
26-Mar-17 15:49 39.853387 -104.669990 0 5440ft 0kts
26-Mar-17 15:50 39.852724 -104.669716 286 5440ft 3kts
26-Mar-17 15:51 39.852708 -104.669523 269 5440ft 0kts
26-Mar-17 15:52 39.852695 -104.669637 253 5440ft 4kts
26-Mar-17 15:53 39.852615 -104.669904 248 5440ft 8kts
26-Mar-17 15:54 39.852393 -104.670730 258 5440ft 9kts
26-Mar-17 15:55 39.852381 -104.676489 272 5440ft 14kts
26-Mar-17 15:56 39.852375 -104.680867 270 5440ft 16kts
26-Mar-17 15:57 39.852231 -104.682503 252 5440ft 0kts
26-Mar-17 15:58 39.852032 -104.686556 264 5440ft 10kts
26-Mar-17 15:59 39.852053 -104.693370 266 5440ft 21kts
26-Mar-17 16:00 39.852854 -104.696562 357 5440ft 15kts
26-Mar-17 16:01 39.880398 -104.696300 1 5570ft 169kts
26-Mar-17 16:02 39.915270 -104.727197 263 6796ft 220kts
26-Mar-17 16:03 39.866145 -104.797994 224 8358ft 293kts
26-Mar-17 16:04 39.812896 -104.865760 228 9976ft 299kts
26-Mar-17 16:05 39.746380 -104.920533 192 12160ft 307kts
26-Mar-17 16:06 39.663046 -104.913869 171 14143ft 321kts
26-Mar-17 16:07 39.581118 -104.873461 156 15928ft 338kts
26-Mar-17 16:08 39.499659 -104.818002 159 17424ft 360kts
26-Mar-17 16:09 39.406846 -104.770150 161 19909ft 369kts
26-Mar-17 16:10 39.334356 -104.672054 130 22160ft 394kts
26-Mar-17 16:11 39.270920 -104.556566 129 24200ft 404kts
26-Mar-17 16:12 39.206690 -104.441305 139 25582ft 414kts
26-Mar-17 16:13 39.109544 -104.395975 182 27121ft 390kts
26-Mar-17 16:14 39.008301 -104.395765 187 28657ft 388kts
26-Mar-17 16:15 38.910627 -104.393873 171 29903ft 404kts
26-Mar-17 16:16 38.822642 -104.356955 167 30991ft 402kts
26-Mar-17 16:17 38.722696 -104.312972 167 31034ft 430kts
26-Mar-17 16:18 38.609847 -104.262999 167 31032ft 473kts
26-Mar-17 16:19 38.491043 -104.210393 166 30993ft 484kts
26-Mar-17 16:20 38.368652 -104.156459 166 30992ft 484kts
26-Mar-17 16:21 38.248506 -104.103726 166 30993ft 484kts
26-Mar-17 16:22 38.126989 -104.050580 166 30993ft 484kts
26-Mar-17 16:23 38.007311 -103.998421 166 30994ft 484kts
26-Mar-17 16:24 37.891078 -103.947936 166 30968ft 483kts
26-Mar-17 16:25 37.775110 -103.897773 166 30971ft 495kts
26-Mar-17 16:26 37.650052 -103.843788 166 30968ft 495kts
26-Mar-17 16:27 37.545367 -103.798771 166 30969ft 495kts
26-Mar-17 16:28 37.421491 -103.745828 165 30969ft 491kts
26-Mar-17 16:29 37.307873 -103.662077 145 30998ft 505kts
26-Mar-17 16:30 37.202535 -103.557631 145 30976ft 504kts
26-Mar-17 16:31 37.097533 -103.453249 145 30971ft 504kts
26-Mar-17 16:32 36.992697 -103.349371 145 30972ft 504kts
26-Mar-17 16:33 36.888986 -103.246991 145 30965ft 503kts
26-Mar-17 16:34 36.789268 -103.148828 147 30966ft 503kts
26-Mar-17 16:35 36.684550 -103.046868 146 30552ft 500kts
26-Mar-17 16:36 36.581229 -102.947181 146 28645ft 491kts
26-Mar-17 16:37 36.477668 -102.847615 146 26749ft 490kts
26-Mar-17 16:38 36.374701 -102.748953 145 24858ft 487kts
26-Mar-17 16:39 36.273525 -102.652319 145 23361ft 477kts
26-Mar-17 16:40 36.175935 -102.559365 145 21101ft 436kts
26-Mar-17 16:41 36.089099 -102.476824 145 18898ft 402kts
26-Mar-17 16:42 36.005195 -102.397628 145 16877ft 393kts
26-Mar-17 16:43 35.925141 -102.322075 146 14988ft 378kts
26-Mar-17 16:44 35.848603 -102.250009 146 13071ft 354kts
26-Mar-17 16:45 35.777036 -102.182765 146 11593ft 319kts
26-Mar-17 16:46 35.712904 -102.122668 146 10585ft 293kts
26-Mar-17 16:47 35.650356 -102.064525 143 9616ft 295kts
26-Mar-17 16:48 35.588905 -102.007192 140 8657ft 289kts
26-Mar-17 16:49 35.529977 -101.952106 140 8644ft 283kts
26-Mar-17 16:50 35.470503 -101.896747 140 8344ft 283kts
26-Mar-17 16:51 35.409909 -101.840506 140 7733ft 280kts
26-Mar-17 16:52 35.349079 -101.784686 148 6787ft 287kts
26-Mar-17 16:53 35.283731 -101.797261 223 6091ft 244kts
26-Mar-17 16:54 35.241417 -101.843496 228 5798ft 208kts
26-Mar-17 16:55 35.192328 -101.870985 170 5388ft 217kts
26-Mar-17 16:56 35.153285 -101.826360 95 5126ft 179kts
26-Mar-17 16:57 35.166487 -101.780245 34 4218ft 155kts
26-Mar-17 16:58 35.195002 -101.745330 40 3837ft 154kts
26-Mar-17 16:59 35.216915 -101.717946 45 3616ft 46kts
26-Mar-17 17:00 35.219570 -101.711828 136 3616ft 11kts
26-Mar-17 17:01 35.217525 -101.709038 120 3616ft 6kts

Navigation Log

Ident Type
Flight plan parsing failed, navigation log unavailable